Time;durP1;ratioP1;P1;durP2;ratioP2;P2;SDS_P1;SDS_P2;PMS_P1;PMS_P2;Temp;Humidity;BMP_temperature;BMP_pressure;BME280_temperature;BME280_humidity;BME280_pressure;Samples;Min_cycle;Max_cycle;Signal;HPM_P1;HPM_P2
2021/08/15 00:01:33;;;;;;;6.72;1.85;;;;;;;;;;4948902;28;20062;-78
2021/08/15 00:04:00;;;;;;;3.67;1.20;;;;;;;;;;4948275;28;20066;-78
2021/08/15 00:06:26;;;;;;;4.32;1.00;;;;;;;;;;4930338;29;20063;-78
2021/08/15 00:08:52;;;;;;;3.28;1.00;;;;;;;;;;4930446;29;20495;-78
2021/08/15 00:11:19;;;;;;;3.65;0.77;;;;;;;;;;4927120;29;20063;-77
2021/08/15 00:13:45;;;;;;;4.55;1.15;;;;;;;;;;4938999;29;20681;-78
2021/08/15 00:16:11;;;;;;;3.78;1.05;;;;;;;;;;4939908;29;20074;-77
2021/08/15 00:18:39;;;;;;;4.88;1.30;;;;;;;;;;4933302;29;20155;-78
2021/08/15 00:21:05;;;;;;;3.75;1.10;;;;;;;;;;4931227;29;20055;-77
2021/08/15 00:23:31;;;;;;;3.33;1.15;;;;;;;;;;4929421;29;20078;-77
2021/08/15 00:25:58;;;;;;;3.00;1.00;;;;;;;;;;4926488;29;20074;-77
2021/08/15 00:28:24;;;;;;;3.13;1.10;;;;;;;;;;4933674;29;20078;-77
2021/08/15 00:30:51;;;;;;;2.10;1.00;;;;;;;;;;4919064;29;20099;-78
2021/08/15 00:33:17;;;;;;;3.95;1.38;;;;;;;;;;4925704;29;20055;-77
2021/08/15 00:35:44;;;;;;;3.47;1.20;;;;;;;;;;4922144;29;20126;-77
2021/08/15 00:38:10;;;;;;;5.47;1.25;;;;;;;;;;4933317;29;20069;-77
2021/08/15 00:40:36;;;;;;;5.03;1.27;;;;;;;;;;4929586;29;20055;-77
2021/08/15 00:43:03;;;;;;;3.83;1.30;;;;;;;;;;4931891;29;20031;-77
2021/08/15 00:45:30;;;;;;;3.20;0.90;;;;;;;;;;4929515;29;20063;-77
2021/08/15 00:47:56;;;;;;;2.78;1.00;;;;;;;;;;4929287;28;20055;-77
2021/08/15 00:50:22;;;;;;;3.72;1.13;;;;;;;;;;4928308;29;20475;-77
2021/08/15 00:52:49;;;;;;;3.88;1.25;;;;;;;;;;4931546;29;20047;-77
2021/08/15 00:55:15;;;;;;;2.55;1.00;;;;;;;;;;4929109;29;20095;-77
2021/08/15 00:57:45;;;;;;;3.90;1.30;;;;;;;;;;4932374;29;20063;-78
2021/08/15 01:00:12;;;;;;;4.40;1.10;;;;;;;;;;4930291;29;20071;-78
2021/08/15 01:02:38;;;;;;;4.43;1.27;;;;;;;;;;4929212;29;20503;-78
2021/08/15 01:05:05;;;;;;;2.92;1.08;;;;;;;;;;4929201;28;20063;-78
2021/08/15 01:07:32;;;;;;;2.00;0.93;;;;;;;;;;4934140;29;20084;-77
2021/08/15 01:09:58;;;;;;;3.25;1.25;;;;;;;;;;4910840;29;20075;-77
2021/08/15 01:12:27;;;;;;;3.15;1.00;;;;;;;;;;4913274;29;20071;-77
2021/08/15 01:14:54;;;;;;;3.25;1.10;;;;;;;;;;4912085;29;20059;-77
2021/08/15 01:17:22;;;;;;;3.33;0.93;;;;;;;;;;4909484;29;20127;-77
2021/08/15 01:19:53;;;;;;;2.28;0.90;;;;;;;;;;4922995;29;20570;-78
2021/08/15 01:22:20;;;;;;;4.65;1.25;;;;;;;;;;4912372;29;20056;-78
2021/08/15 01:24:46;;;;;;;4.65;1.50;;;;;;;;;;4911607;29;20587;-77
2021/08/15 01:27:14;;;;;;;3.90;1.10;;;;;;;;;;4911505;29;20083;-77
2021/08/15 01:29:44;;;;;;;3.80;1.00;;;;;;;;;;4910677;29;20079;-78
2021/08/15 01:32:11;;;;;;;3.22;1.20;;;;;;;;;;4911564;29;20056;-78
2021/08/15 01:34:38;;;;;;;3.20;1.20;;;;;;;;;;4909658;28;20646;-78
2021/08/15 01:37:07;;;;;;;2.97;1.08;;;;;;;;;;4914278;29;20055;-77
2021/08/15 01:39:33;;;;;;;3.00;1.23;;;;;;;;;;4930405;28;20056;-77
2021/08/15 01:42:00;;;;;;;5.35;1.67;;;;;;;;;;4911068;29;20071;-77
2021/08/15 01:44:26;;;;;;;2.83;1.25;;;;;;;;;;4910256;29;20056;-76
2021/08/15 01:46:52;;;;;;;2.58;1.10;;;;;;;;;;4913592;29;20563;-77
2021/08/15 01:49:19;;;;;;;3.78;1.15;;;;;;;;;;4913866;29;20080;-77
2021/08/15 01:51:45;;;;;;;4.18;1.30;;;;;;;;;;4918488;29;20043;-77
2021/08/15 01:54:12;;;;;;;4.03;1.17;;;;;;;;;;4917190;29;20041;-77
2021/08/15 01:56:38;;;;;;;3.35;1.30;;;;;;;;;;4928147;29;20028;-77
2021/08/15 01:59:04;;;;;;;3.08;1.00;;;;;;;;;;4965305;28;20058;-77
2021/08/15 02:01:31;;;;;;;2.95;0.90;;;;;;;;;;4967227;28;20035;-77
2021/08/15 02:03:57;;;;;;;3.33;1.20;;;;;;;;;;4948397;28;20102;-78
2021/08/15 02:06:23;;;;;;;6.00;1.50;;;;;;;;;;4944102;28;20059;-77
2021/08/15 02:08:51;;;;;;;3.65;1.20;;;;;;;;;;4946452;28;20523;-77
2021/08/15 02:11:18;;;;;;;4.43;1.20;;;;;;;;;;4938533;28;20067;-77
2021/08/15 02:13:45;;;;;;;3.13;1.13;;;;;;;;;;4947172;28;20055;-77
2021/08/15 02:16:11;;;;;;;3.75;1.20;;;;;;;;;;4948046;28;20067;-77
2021/08/15 02:18:37;;;;;;;4.28;1.27;;;;;;;;;;4947825;28;20051;-77
2021/08/15 02:21:04;;;;;;;3.22;1.30;;;;;;;;;;4949336;28;20592;-76
2021/08/15 02:23:31;;;;;;;4.05;1.30;;;;;;;;;;4945060;28;20070;-77
2021/08/15 02:25:57;;;;;;;3.63;1.45;;;;;;;;;;4947850;28;20074;-77
2021/08/15 02:28:23;;;;;;;4.15;1.23;;;;;;;;;;4946019;28;20529;-77
2021/08/15 02:30:51;;;;;;;5.68;1.30;;;;;;;;;;4947112;28;20098;-77
2021/08/15 02:33:17;;;;;;;4.07;1.30;;;;;;;;;;4945117;28;20067;-76
2021/08/15 02:35:44;;;;;;;4.22;1.27;;;;;;;;;;4929029;29;20094;-77
2021/08/15 02:38:10;;;;;;;3.88;1.15;;;;;;;;;;4946223;28;20063;-77
2021/08/15 02:40:37;;;;;;;2.55;0.98;;;;;;;;;;4949100;28;20074;-77
2021/08/15 02:43:04;;;;;;;4.88;1.27;;;;;;;;;;4945677;28;20059;-77
2021/08/15 02:45:30;;;;;;;4.05;1.05;;;;;;;;;;4947642;28;20073;-77
2021/08/15 02:47:57;;;;;;;3.13;1.25;;;;;;;;;;4950681;28;20051;-78
2021/08/15 02:50:23;;;;;;;4.00;1.10;;;;;;;;;;4951359;28;20054;-76
2021/08/15 02:52:50;;;;;;;5.13;1.30;;;;;;;;;;4949941;28;20652;-76
2021/08/15 02:55:16;;;;;;;3.08;1.20;;;;;;;;;;4948050;28;20051;-77
2021/08/15 02:57:43;;;;;;;2.92;1.20;;;;;;;;;;4923812;29;20275;-76
2021/08/15 03:00:11;;;;;;;3.33;1.40;;;;;;;;;;4917252;28;20072;-77
2021/08/15 03:02:37;;;;;;;2.92;1.10;;;;;;;;;;4926803;28;20130;-77
2021/08/15 03:05:04;;;;;;;2.97;1.08;;;;;;;;;;4930917;28;20047;-77
2021/08/15 03:07:31;;;;;;;3.65;1.20;;;;;;;;;;4930831;28;20063;-76
2021/08/15 03:09:57;;;;;;;4.32;1.48;;;;;;;;;;4931067;28;20114;-76
2021/08/15 03:12:24;;;;;;;2.30;1.13;;;;;;;;;;4930526;28;20055;-76
2021/08/15 03:14:50;;;;;;;4.70;1.23;;;;;;;;;;4928888;28;20067;-77
2021/08/15 03:17:16;;;;;;;4.80;1.50;;;;;;;;;;4931676;28;20070;-76
2021/08/15 03:19:43;;;;;;;3.13;1.00;;;;;;;;;;4929395;28;20423;-76
2021/08/15 03:22:09;;;;;;;5.43;1.45;;;;;;;;;;4929363;28;20648;-76
2021/08/15 03:24:36;;;;;;;5.10;1.52;;;;;;;;;;4929214;28;20067;-76
2021/08/15 03:27:03;;;;;;;3.53;1.15;;;;;;;;;;4930678;28;20114;-76
2021/08/15 03:29:30;;;;;;;3.25;1.20;;;;;;;;;;4944291;28;20078;-76
2021/08/15 03:31:56;;;;;;;4.55;1.38;;;;;;;;;;4930302;28;20067;-76
2021/08/15 03:34:22;;;;;;;3.90;1.17;;;;;;;;;;4943429;28;20503;-76
2021/08/15 03:36:49;;;;;;;4.25;1.20;;;;;;;;;;4928641;28;20060;-76
2021/08/15 03:39:16;;;;;;;3.45;1.30;;;;;;;;;;4931388;29;20062;-75
2021/08/15 03:41:42;;;;;;;3.10;1.20;;;;;;;;;;4929595;28;20083;-76
2021/08/15 03:44:10;;;;;;;3.95;1.30;;;;;;;;;;4928588;28;20456;-76
2021/08/15 03:46:36;;;;;;;2.95;1.27;;;;;;;;;;4927756;28;20063;-77
2021/08/15 03:49:02;;;;;;;4.75;1.30;;;;;;;;;;4931985;29;20060;-75
2021/08/15 03:51:29;;;;;;;3.72;1.30;;;;;;;;;;4928738;28;20071;-75
2021/08/15 03:53:55;;;;;;;5.15;1.45;;;;;;;;;;4929870;28;20424;-77
2021/08/15 03:56:22;;;;;;;2.92;1.17;;;;;;;;;;4927284;28;20056;-75
2021/08/15 03:58:48;;;;;;;3.65;1.17;;;;;;;;;;4943147;28;20561;-75
2021/08/15 04:01:14;;;;;;;2.88;1.30;;;;;;;;;;4948790;28;20066;-76
2021/08/15 04:03:42;;;;;;;3.40;1.30;;;;;;;;;;4948033;28;20554;-75
2021/08/15 04:06:09;;;;;;;4.93;1.58;;;;;;;;;;4947835;28;20055;-75
2021/08/15 04:08:38;;;;;;;3.65;1.52;;;;;;;;;;4949232;28;20081;-76
2021/08/15 04:11:05;;;;;;;4.38;1.40;;;;;;;;;;4950828;28;20094;-76
2021/08/15 04:13:31;;;;;;;2.63;1.20;;;;;;;;;;4949994;28;20059;-75
2021/08/15 04:15:57;;;;;;;3.30;1.20;;;;;;;;;;4946392;28;20062;-75
2021/08/15 04:18:24;;;;;;;4.05;1.45;;;;;;;;;;4936964;28;20521;-75
2021/08/15 04:20:50;;;;;;;4.22;1.30;;;;;;;;;;4949604;28;20066;-75
2021/08/15 04:23:17;;;;;;;4.28;1.48;;;;;;;;;;4948586;28;20423;-76
2021/08/15 04:25:45;;;;;;;2.97;1.40;;;;;;;;;;4942558;28;20059;-75
2021/08/15 04:28:11;;;;;;;3.42;1.33;;;;;;;;;;4946427;28;20416;-75
2021/08/15 04:30:38;;;;;;;3.58;1.15;;;;;;;;;;4948569;28;20074;-75
2021/08/15 04:33:04;;;;;;;4.32;1.40;;;;;;;;;;4924542;28;20055;-75
2021/08/15 04:35:31;;;;;;;3.83;1.33;;;;;;;;;;4942327;28;20522;-75
2021/08/15 04:37:57;;;;;;;3.35;1.30;;;;;;;;;;4948719;28;20059;-75
2021/08/15 04:40:24;;;;;;;3.35;1.30;;;;;;;;;;4944503;28;20062;-75
2021/08/15 04:42:50;;;;;;;3.53;1.30;;;;;;;;;;4948087;28;20051;-75
2021/08/15 04:45:16;;;;;;;3.20;1.10;;;;;;;;;;4946357;28;20130;-75
2021/08/15 04:47:43;;;;;;;3.17;1.33;;;;;;;;;;4947786;28;20062;-75
2021/08/15 04:50:09;;;;;;;3.38;1.30;;;;;;;;;;4950526;28;20078;-75
2021/08/15 04:52:36;;;;;;;4.50;1.50;;;;;;;;;;4948630;28;20066;-75
2021/08/15 04:55:02;;;;;;;3.50;1.48;;;;;;;;;;4951054;28;20058;-76
2021/08/15 04:57:29;;;;;;;3.50;1.45;;;;;;;;;;4946730;28;20118;-76
2021/08/15 04:59:55;;;;;;;3.63;1.20;;;;;;;;;;4947648;28;20059;-76
2021/08/15 05:02:21;;;;;;;6.53;1.55;;;;;;;;;;4944785;28;20090;-76
2021/08/15 05:04:48;;;;;;;3.83;1.45;;;;;;;;;;4947066;28;20102;-76
2021/08/15 05:07:14;;;;;;;3.45;1.48;;;;;;;;;;4948012;28;20066;-76
2021/08/15 05:09:41;;;;;;;3.33;1.33;;;;;;;;;;4946479;28;20062;-77
2021/08/15 05:12:09;;;;;;;3.13;1.13;;;;;;;;;;4950964;28;20077;-77
2021/08/15 05:14:36;;;;;;;2.95;1.38;;;;;;;;;;4946662;28;20602;-75
2021/08/15 05:17:02;;;;;;;3.13;1.10;;;;;;;;;;4929172;28;20101;-76
2021/08/15 05:19:31;;;;;;;3.72;1.50;;;;;;;;;;4951283;28;20063;-76
2021/08/15 05:21:57;;;;;;;4.43;1.30;;;;;;;;;;4945351;28;20058;-76
2021/08/15 05:24:24;;;;;;;6.05;2.05;;;;;;;;;;4935988;28;20069;-76
2021/08/15 05:26:50;;;;;;;3.33;1.23;;;;;;;;;;4945216;28;20075;-77
2021/08/15 05:29:16;;;;;;;3.25;1.27;;;;;;;;;;4946392;28;20059;-76
2021/08/15 05:31:44;;;;;;;3.95;1.00;;;;;;;;;;4930807;28;20456;-76
2021/08/15 05:34:10;;;;;;;3.95;1.30;;;;;;;;;;4930949;28;20089;-76
2021/08/15 05:36:36;;;;;;;3.58;1.20;;;;;;;;;;4947537;28;20055;-76
2021/08/15 05:39:04;;;;;;;4.30;1.40;;;;;;;;;;4952090;28;20062;-78
2021/08/15 05:41:31;;;;;;;2.95;1.10;;;;;;;;;;4945022;28;20483;-78
2021/08/15 05:43:58;;;;;;;4.15;1.15;;;;;;;;;;4940935;28;20054;-76
2021/08/15 05:46:24;;;;;;;2.88;1.17;;;;;;;;;;4942404;28;20050;-77
2021/08/15 05:48:51;;;;;;;2.85;1.40;;;;;;;;;;4946327;28;20394;-77
2021/08/15 05:51:17;;;;;;;5.22;1.65;;;;;;;;;;4949396;28;20060;-77
2021/08/15 05:53:43;;;;;;;3.53;1.60;;;;;;;;;;4947166;28;21411;-78
2021/08/15 05:56:10;;;;;;;5.53;1.50;;;;;;;;;;4950952;28;20082;-77
2021/08/15 05:58:36;;;;;;;10.27;1.70;;;;;;;;;;4945724;28;20070;-77
2021/08/15 06:01:02;;;;;;;5.75;1.80;;;;;;;;;;4950344;28;20054;-77
2021/08/15 06:03:29;;;;;;;4.53;1.30;;;;;;;;;;4944942;28;20051;-78
2021/08/15 06:05:55;;;;;;;4.10;1.70;;;;;;;;;;4948188;28;20066;-77
2021/08/15 06:08:22;;;;;;;3.70;1.38;;;;;;;;;;4948083;28;20055;-78
2021/08/15 06:10:48;;;;;;;3.33;1.40;;;;;;;;;;4927403;28;20071;-78
2021/08/15 06:13:15;;;;;;;4.55;1.45;;;;;;;;;;4947902;28;20066;-77
2021/08/15 06:15:41;;;;;;;3.60;1.67;;;;;;;;;;4947756;28;20066;-77
2021/08/15 06:18:08;;;;;;;3.40;1.23;;;;;;;;;;4947760;28;20443;-78
2021/08/15 06:20:34;;;;;;;4.47;1.40;;;;;;;;;;4943775;28;20055;-77
2021/08/15 06:23:01;;;;;;;6.45;1.75;;;;;;;;;;4952926;28;20507;-77
2021/08/15 06:25:27;;;;;;;3.85;1.42;;;;;;;;;;4947488;28;20129;-77
2021/08/15 06:27:53;;;;;;;3.28;1.38;;;;;;;;;;4951414;28;20079;-78
2021/08/15 06:30:21;;;;;;;5.75;1.60;;;;;;;;;;4949823;28;20102;-78
2021/08/15 06:32:48;;;;;;;3.40;1.38;;;;;;;;;;4951317;28;20062;-78
2021/08/15 06:35:15;;;;;;;4.65;1.40;;;;;;;;;;4950854;28;20511;-79
2021/08/15 06:37:42;;;;;;;4.10;1.20;;;;;;;;;;4951828;28;20085;-77
2021/08/15 06:40:08;;;;;;;4.75;1.50;;;;;;;;;;4950195;28;20051;-77
2021/08/15 06:42:35;;;;;;;3.95;1.42;;;;;;;;;;4948769;28;20043;-77
2021/08/15 06:45:01;;;;;;;3.53;1.30;;;;;;;;;;4934150;28;20058;-78
2021/08/15 06:47:28;;;;;;;5.45;1.58;;;;;;;;;;4949881;28;20668;-78
2021/08/15 06:49:54;;;;;;;5.32;1.52;;;;;;;;;;4952616;28;20460;-77
2021/08/15 06:52:21;;;;;;;8.85;2.22;;;;;;;;;;4942620;28;20545;-78
2021/08/15 06:54:47;;;;;;;4.20;1.40;;;;;;;;;;4952172;28;20514;-77
2021/08/15 06:57:14;;;;;;;5.93;2.05;;;;;;;;;;4950510;28;20055;-76
2021/08/15 06:59:40;;;;;;;8.73;1.75;;;;;;;;;;4950631;28;20074;-77
2021/08/15 07:02:07;;;;;;;7.15;1.77;;;;;;;;;;4952162;28;20106;-77
2021/08/15 07:04:33;;;;;;;6.93;1.75;;;;;;;;;;4949656;28;20074;-78
2021/08/15 07:07:00;;;;;;;2.40;1.30;;;;;;;;;;4949873;28;20067;-79
2021/08/15 07:09:26;;;;;;;4.15;1.63;;;;;;;;;;4949180;28;20121;-76
2021/08/15 07:11:52;;;;;;;4.70;1.50;;;;;;;;;;4951325;28;20126;-76
2021/08/15 07:14:19;;;;;;;3.17;1.48;;;;;;;;;;4944537;28;20081;-77
2021/08/15 07:16:45;;;;;;;4.18;1.42;;;;;;;;;;4950895;28;20059;-76
2021/08/15 07:19:11;;;;;;;5.15;2.08;;;;;;;;;;4947508;28;20644;-77
2021/08/15 07:21:38;;;;;;;6.07;1.50;;;;;;;;;;4950926;28;20117;-77
2021/08/15 07:24:04;;;;;;;6.55;1.33;;;;;;;;;;4934346;28;20066;-78
2021/08/15 07:26:31;;;;;;;5.00;1.58;;;;;;;;;;4949965;28;20062;-76
2021/08/15 07:28:58;;;;;;;2.65;1.50;;;;;;;;;;4950392;28;20070;-75
2021/08/15 07:31:24;;;;;;;4.05;1.52;;;;;;;;;;4947215;28;20464;-76
2021/08/15 07:33:51;;;;;;;4.38;1.38;;;;;;;;;;4950553;28;20066;-78
2021/08/15 07:36:17;;;;;;;4.10;1.55;;;;;;;;;;4949474;28;20059;-76
2021/08/15 07:38:44;;;;;;;4.20;1.45;;;;;;;;;;4930563;28;20640;-76
2021/08/15 07:41:10;;;;;;;5.20;1.42;;;;;;;;;;4931105;28;20062;-76
2021/08/15 07:43:36;;;;;;;5.38;1.30;;;;;;;;;;4937939;28;20060;-76
2021/08/15 07:46:03;;;;;;;4.95;1.42;;;;;;;;;;4930470;28;20106;-77
2021/08/15 07:48:29;;;;;;;4.47;1.27;;;;;;;;;;4945944;28;20055;-76
2021/08/15 07:50:56;;;;;;;3.17;1.48;;;;;;;;;;4929358;28;20067;-76
2021/08/15 07:53:23;;;;;;;5.18;1.50;;;;;;;;;;4925327;28;20073;-76
2021/08/15 07:55:51;;;;;;;3.88;1.33;;;;;;;;;;4942948;28;20097;-76
2021/08/15 07:58:18;;;;;;;5.70;1.52;;;;;;;;;;4949114;29;20075;-76
2021/08/15 08:00:44;;;;;;;6.53;1.33;;;;;;;;;;4948847;28;20581;-77
2021/08/15 08:03:12;;;;;;;4.57;1.50;;;;;;;;;;4948922;28;20047;-76
2021/08/15 08:05:39;;;;;;;9.65;1.80;;;;;;;;;;4947438;28;20063;-78
2021/08/15 08:08:06;;;;;;;3.47;1.23;;;;;;;;;;4934188;29;20066;-77
2021/08/15 08:10:32;;;;;;;2.75;1.17;;;;;;;;;;4942806;28;20035;-78
2021/08/15 08:12:59;;;;;;;3.92;1.23;;;;;;;;;;4948830;28;20071;-77
2021/08/15 08:15:25;;;;;;;5.10;1.20;;;;;;;;;;4948047;28;20059;-77
2021/08/15 08:17:51;;;;;;;4.63;1.40;;;;;;;;;;4940287;28;20074;-75
2021/08/15 08:20:20;;;;;;;3.67;1.45;;;;;;;;;;4947771;28;20055;-78
2021/08/15 08:22:47;;;;;;;4.10;1.60;;;;;;;;;;4948352;28;20569;-78
2021/08/15 08:25:14;;;;;;;5.30;1.30;;;;;;;;;;4950051;28;20062;-77
2021/08/15 08:27:40;;;;;;;5.50;1.58;;;;;;;;;;4947451;28;20071;-78
2021/08/15 08:30:07;;;;;;;3.08;1.30;;;;;;;;;;4949056;28;20063;-78
2021/08/15 08:32:34;;;;;;;2.67;1.38;;;;;;;;;;4945485;28;20027;-77
2021/08/15 08:35:00;;;;;;;5.32;1.88;;;;;;;;;;4947827;28;20117;-79
2021/08/15 08:37:26;;;;;;;4.80;1.50;;;;;;;;;;4948268;28;20490;-77
2021/08/15 08:39:59;;;;;;;4.68;1.48;;;;;;;;;;4946263;28;20055;-79
2021/08/15 08:42:26;;;;;;;5.65;1.33;;;;;;;;;;4945709;28;20070;-77
2021/08/15 08:44:56;;;;;;;3.58;1.30;;;;;;;;;;4947520;28;20042;-77
2021/08/15 08:47:23;;;;;;;4.03;1.40;;;;;;;;;;4948278;28;20431;-78
2021/08/15 08:49:51;;;;;;;5.35;1.60;;;;;;;;;;4948607;28;20125;-78
2021/08/15 08:52:18;;;;;;;3.15;1.20;;;;;;;;;;4948854;28;20070;-79
2021/08/15 08:54:44;;;;;;;3.45;1.30;;;;;;;;;;4948352;28;21442;-78
2021/08/15 08:57:11;;;;;;;2.92;1.23;;;;;;;;;;4950418;28;20062;-78
2021/08/15 08:59:38;;;;;;;3.30;1.30;;;;;;;;;;4947561;28;20070;-78
2021/08/15 09:02:04;;;;;;;3.78;1.20;;;;;;;;;;4947214;28;20043;-78
2021/08/15 09:04:31;;;;;;;6.85;1.50;;;;;;;;;;4947290;28;20109;-77
2021/08/15 09:07:02;;;;;;;6.68;1.33;;;;;;;;;;4947812;28;20050;-77
2021/08/15 09:09:28;;;;;;;6.63;1.40;;;;;;;;;;4945942;28;20063;-77
2021/08/15 09:11:59;;;;;;;4.03;1.38;;;;;;;;;;4931707;28;20133;-79
2021/08/15 09:14:26;;;;;;;5.47;1.60;;;;;;;;;;4947439;28;20062;-80
2021/08/15 09:16:59;;;;;;;5.30;1.50;;;;;;;;;;4947892;28;20047;-79
2021/08/15 09:19:31;;;;;;;3.50;1.40;;;;;;;;;;4946563;28;20063;-79
2021/08/15 09:22:10;;;;;;;5.63;1.40;;;;;;;;;;4929122;28;20062;-79
2021/08/15 09:24:46;;;;;;;6.75;1.60;;;;;;;;;;4940883;28;20062;-78
2021/08/15 09:27:18;;;;;;;5.15;1.40;;;;;;;;;;4942766;28;20067;-77
2021/08/15 09:29:44;;;;;;;8.82;1.75;;;;;;;;;;4945625;28;20148;-78
2021/08/15 09:32:14;;;;;;;3.80;1.45;;;;;;;;;;4946259;28;20094;-78
2021/08/15 09:34:40;;;;;;;5.38;1.70;;;;;;;;;;4947152;28;20050;-78
2021/08/15 09:37:19;;;;;;;3.60;1.38;;;;;;;;;;4950037;28;20613;-79
2021/08/15 09:39:46;;;;;;;2.28;1.27;;;;;;;;;;4942983;28;20297;-78
2021/08/15 09:42:12;;;;;;;4.80;1.30;;;;;;;;;;4947727;28;20066;-78
2021/08/15 09:44:38;;;;;;;5.95;1.30;;;;;;;;;;4939549;28;20107;-79
2021/08/15 09:47:06;;;;;;;2.72;1.40;;;;;;;;;;4939316;28;20814;-79
2021/08/15 09:49:33;;;;;;;4.90;1.52;;;;;;;;;;4945447;28;20144;-78
2021/08/15 09:51:59;;;;;;;4.57;1.50;;;;;;;;;;4948813;28;20137;-78
2021/08/15 09:54:26;;;;;;;4.10;1.20;;;;;;;;;;4947249;28;20058;-78
2021/08/15 09:56:55;;;;;;;4.28;1.45;;;;;;;;;;4946761;28;20487;-78
2021/08/15 09:59:22;;;;;;;4.28;1.58;;;;;;;;;;4947222;28;20109;-79
2021/08/15 10:01:55;;;;;;;3.00;1.27;;;;;;;;;;4947514;28;20597;-79
2021/08/15 10:04:24;;;;;;;3.50;1.25;;;;;;;;;;4943659;28;20138;-79
2021/08/15 10:06:52;;;;;;;2.35;1.17;;;;;;;;;;4947917;28;20146;-79
2021/08/15 10:09:22;;;;;;;3.58;1.30;;;;;;;;;;4947113;28;20063;-78
2021/08/15 10:11:49;;;;;;;3.75;1.40;;;;;;;;;;4947163;28;20560;-80
2021/08/15 10:14:15;;;;;;;3.63;1.48;;;;;;;;;;4946826;28;20113;-78
2021/08/15 10:16:49;;;;;;;3.05;1.30;;;;;;;;;;4942763;28;20051;-78
2021/08/15 10:19:17;;;;;;;4.85;1.30;;;;;;;;;;4929638;28;20074;-78
2021/08/15 10:21:48;;;;;;;1.98;1.17;;;;;;;;;;4945906;28;20066;-78
2021/08/15 10:24:16;;;;;;;2.17;1.17;;;;;;;;;;4949046;28;20070;-78
2021/08/15 10:26:42;;;;;;;3.05;1.10;;;;;;;;;;4947064;28;20077;-78
2021/08/15 10:29:27;;;;;;;5.25;1.52;;;;;;;;;;4945496;28;20558;-78
2021/08/15 10:32:09;;;;;;;4.05;1.10;;;;;;;;;;4943482;28;20577;-78
2021/08/15 10:34:50;;;;;;;5.50;1.88;;;;;;;;;;4947800;28;20459;-79
2021/08/15 10:37:26;;;;;;;4.45;1.80;;;;;;;;;;4903511;28;20042;-80
2021/08/15 10:39:53;;;;;;;3.20;1.33;;;;;;;;;;4938695;28;20149;-78
2021/08/15 10:42:38;;;;;;;4.25;1.50;;;;;;;;;;4947562;28;20082;-79
2021/08/15 10:45:08;;;;;;;3.53;1.20;;;;;;;;;;4947074;28;20046;-78
2021/08/15 10:47:37;;;;;;;4.32;1.30;;;;;;;;;;4947125;28;20503;-77
2021/08/15 10:50:08;;;;;;;2.83;1.30;;;;;;;;;;4932904;28;20067;-78
2021/08/15 10:52:38;;;;;;;3.70;1.70;;;;;;;;;;4944411;28;20127;-78
2021/08/15 10:55:07;;;;;;;3.70;1.38;;;;;;;;;;4946848;28;20054;-79
2021/08/15 10:57:37;;;;;;;2.58;1.00;;;;;;;;;;4944914;28;20437;-78
2021/08/15 11:00:24;;;;;;;4.55;1.40;;;;;;;;;;4938974;28;20075;-78
2021/08/15 11:02:50;;;;;;;3.58;1.20;;;;;;;;;;4936941;28;20195;-78
2021/08/15 11:05:38;;;;;;;4.32;1.10;;;;;;;;;;4946819;28;20062;-79
2021/08/15 11:08:26;;;;;;;4.95;1.27;;;;;;;;;;4950812;28;21015;-79
2021/08/15 11:11:06;;;;;;;2.08;1.13;;;;;;;;;;4947187;28;20058;-78
2021/08/15 11:13:33;;;;;;;3.03;1.25;;;;;;;;;;4949394;28;20094;-79
2021/08/15 11:16:18;;;;;;;4.72;1.33;;;;;;;;;;4949200;28;20507;-79
2021/08/15 11:19:23;;;;;;;4.30;1.20;;;;;;;;;;4949278;28;20110;-79
2021/08/15 11:22:10;;;;;;;3.08;1.10;;;;;;;;;;4868211;29;20116;-79
2021/08/15 11:24:36;;;;;;;2.88;1.40;;;;;;;;;;4882416;29;20124;-79
2021/08/15 11:27:03;;;;;;;3.58;1.20;;;;;;;;;;4917206;28;20067;-79
2021/08/15 11:29:29;;;;;;;2.97;1.27;;;;;;;;;;4948949;28;20040;-77
2021/08/15 11:31:57;;;;;;;3.63;1.20;;;;;;;;;;4949557;28;20066;-78
2021/08/15 11:34:23;;;;;;;4.50;1.35;;;;;;;;;;4949396;28;20122;-78
2021/08/15 11:37:00;;;;;;;2.72;1.40;;;;;;;;;;4949331;28;20031;-79
2021/08/15 11:39:29;;;;;;;4.63;1.30;;;;;;;;;;4949384;28;20089;-78
2021/08/15 11:41:56;;;;;;;3.13;1.13;;;;;;;;;;4950302;28;20066;-79
2021/08/15 11:44:22;;;;;;;3.03;1.23;;;;;;;;;;4948017;28;20263;-79
2021/08/15 11:46:48;;;;;;;5.15;1.45;;;;;;;;;;4950607;28;20122;-78
2021/08/15 11:49:33;;;;;;;2.55;1.08;;;;;;;;;;4941441;28;20066;-79
2021/08/15 11:52:18;;;;;;;4.00;1.20;;;;;;;;;;4947871;28;21430;-78
2021/08/15 11:54:44;;;;;;;4.43;1.40;;;;;;;;;;4927443;29;21375;-78
2021/08/15 11:57:11;;;;;;;2.75;1.40;;;;;;;;;;4935724;28;20058;-77
2021/08/15 11:59:38;;;;;;;3.20;1.20;;;;;;;;;;4927468;28;20582;-78
2021/08/15 12:02:06;;;;;;;4.72;1.73;;;;;;;;;;4929405;28;20055;-78
2021/08/15 12:04:33;;;;;;;2.50;1.30;;;;;;;;;;4929774;28;20063;-78
2021/08/15 12:07:00;;;;;;;2.03;1.20;;;;;;;;;;4930190;28;20059;-78
2021/08/15 12:09:29;;;;;;;3.60;1.08;;;;;;;;;;4930484;28;20060;-78
2021/08/15 12:11:56;;;;;;;3.30;1.10;;;;;;;;;;4927832;28;20528;-78
2021/08/15 12:14:22;;;;;;;3.80;1.30;;;;;;;;;;4923999;28;20464;-78
2021/08/15 12:16:56;;;;;;;5.00;1.38;;;;;;;;;;4928205;28;20062;-78
2021/08/15 12:19:23;;;;;;;3.63;1.20;;;;;;;;;;4923217;29;20060;-78
2021/08/15 12:21:50;;;;;;;2.22;1.02;;;;;;;;;;4930363;28;20126;-79
2021/08/15 12:24:22;;;;;;;3.53;1.40;;;;;;;;;;4929795;28;20063;-78
2021/08/15 12:26:55;;;;;;;3.42;1.13;;;;;;;;;;4926805;28;20076;-79
2021/08/15 12:29:21;;;;;;;3.47;1.38;;;;;;;;;;4928930;28;20081;-78
2021/08/15 12:32:01;;;;;;;2.33;1.20;;;;;;;;;;4931222;28;20059;-79
2021/08/15 12:34:28;;;;;;;1.92;1.10;;;;;;;;;;4923634;28;20150;-78
2021/08/15 12:36:55;;;;;;;3.42;1.13;;;;;;;;;;4931218;28;20487;-79
2021/08/15 12:39:32;;;;;;;3.47;1.20;;;;;;;;;;4928752;28;20067;-78
2021/08/15 12:41:59;;;;;;;2.28;1.05;;;;;;;;;;4931831;29;20055;-78
2021/08/15 12:44:27;;;;;;;2.83;1.23;;;;;;;;;;4932643;28;20067;-78
2021/08/15 12:47:12;;;;;;;3.58;1.27;;;;;;;;;;4932178;28;20511;-78
2021/08/15 12:49:43;;;;;;;3.03;1.40;;;;;;;;;;4939316;28;20066;-79
2021/08/15 12:52:13;;;;;;;2.95;1.10;;;;;;;;;;4926736;28;20079;-78
2021/08/15 12:54:58;;;;;;;2.42;1.08;;;;;;;;;;4929906;28;25376;-78
2021/08/15 12:57:24;;;;;;;3.00;1.08;;;;;;;;;;4928960;28;20728;-78
2021/08/15 12:59:51;;;;;;;2.70;1.20;;;;;;;;;;4948819;28;20067;-78
2021/08/15 13:02:17;;;;;;;4.35;1.30;;;;;;;;;;4949224;28;20870;-79
2021/08/15 13:04:43;;;;;;;1.98;1.10;;;;;;;;;;4947009;28;20175;-79
2021/08/15 13:07:10;;;;;;;3.17;1.40;;;;;;;;;;4949187;28;20058;-79
2021/08/15 13:09:36;;;;;;;3.20;1.25;;;;;;;;;;4947575;28;20130;-78
2021/08/15 13:12:03;;;;;;;3.17;1.15;;;;;;;;;;4948847;28;20443;-78
2021/08/15 13:14:29;;;;;;;3.17;1.10;;;;;;;;;;4948471;28;20067;-78
2021/08/15 13:17:01;;;;;;;3.53;1.20;;;;;;;;;;4948982;28;20067;-80
2021/08/15 13:19:27;;;;;;;2.58;1.10;;;;;;;;;;4947942;28;20518;-78
2021/08/15 13:21:54;;;;;;;2.22;1.23;;;;;;;;;;4945967;28;20035;-78
2021/08/15 13:24:20;;;;;;;3.35;1.40;;;;;;;;;;4946754;28;20047;-79
2021/08/15 13:26:46;;;;;;;2.65;1.15;;;;;;;;;;4947778;28;20062;-78
2021/08/15 13:29:13;;;;;;;2.13;1.02;;;;;;;;;;4949502;28;20063;-78
2021/08/15 13:31:39;;;;;;;2.45;1.20;;;;;;;;;;4942144;28;20059;-78
2021/08/15 13:34:06;;;;;;;3.72;1.17;;;;;;;;;;4947541;28;20062;-78
2021/08/15 13:36:32;;;;;;;2.67;1.40;;;;;;;;;;4947971;28;20059;-79
2021/08/15 13:38:58;;;;;;;2.95;1.23;;;;;;;;;;4946902;28;20051;-79
2021/08/15 13:41:25;;;;;;;3.83;1.20;;;;;;;;;;4930242;28;20066;-78
2021/08/15 13:43:51;;;;;;;3.42;1.35;;;;;;;;;;4948656;28;20063;-79
2021/08/15 13:46:17;;;;;;;2.60;1.10;;;;;;;;;;4948421;28;20565;-79
2021/08/15 13:48:44;;;;;;;2.08;0.90;;;;;;;;;;4956619;28;20510;-79
2021/08/15 13:51:12;;;;;;;2.42;1.10;;;;;;;;;;4950056;28;20066;-79
2021/08/15 13:53:39;;;;;;;2.22;1.20;;;;;;;;;;4945842;28;20054;-78
2021/08/15 13:56:05;;;;;;;3.58;1.10;;;;;;;;;;4947972;28;20683;-77
2021/08/15 13:58:33;;;;;;;2.50;1.08;;;;;;;;;;4943779;28;20499;-78
2021/08/15 14:00:59;;;;;;;3.38;1.15;;;;;;;;;;4930130;28;20514;-79
2021/08/15 14:03:26;;;;;;;2.63;0.98;;;;;;;;;;4929946;28;20071;-79
2021/08/15 14:05:52;;;;;;;3.28;1.00;;;;;;;;;;4930277;28;20492;-79
2021/08/15 14:08:19;;;;;;;3.05;1.45;;;;;;;;;;4924945;28;20047;-78
2021/08/15 14:10:45;;;;;;;2.30;1.23;;;;;;;;;;4929500;28;21285;-78
2021/08/15 14:13:12;;;;;;;2.67;1.25;;;;;;;;;;4929994;28;20059;-78
2021/08/15 14:15:39;;;;;;;2.10;0.90;;;;;;;;;;4927605;28;20067;-78
2021/08/15 14:18:06;;;;;;;2.28;1.02;;;;;;;;;;4929679;28;20071;-79
2021/08/15 14:20:32;;;;;;;2.58;0.95;;;;;;;;;;4928571;28;20064;-79
2021/08/15 14:22:59;;;;;;;3.13;1.40;;;;;;;;;;4929691;28;20080;-79
2021/08/15 14:25:25;;;;;;;2.25;1.05;;;;;;;;;;4928149;29;20072;-78
2021/08/15 14:27:51;;;;;;;2.20;1.15;;;;;;;;;;4930889;28;20063;-78
2021/08/15 14:30:18;;;;;;;2.55;1.05;;;;;;;;;;4929054;28;20064;-77
2021/08/15 14:32:44;;;;;;;2.83;1.33;;;;;;;;;;4930521;28;20040;-78
2021/08/15 14:35:15;;;;;;;3.45;1.20;;;;;;;;;;4931071;28;20068;-79
2021/08/15 14:37:41;;;;;;;1.77;1.10;;;;;;;;;;4927449;28;20063;-78
2021/08/15 14:40:09;;;;;;;2.30;0.80;;;;;;;;;;4929245;29;20431;-78
2021/08/15 14:42:36;;;;;;;3.50;1.20;;;;;;;;;;4934063;28;20747;-77
2021/08/15 14:45:02;;;;;;;3.22;1.20;;;;;;;;;;4937039;28;20036;-79
2021/08/15 14:47:29;;;;;;;4.28;1.10;;;;;;;;;;4937138;28;20066;-82